Zemple, Minnesota
Current Conditions -  °F | °C
As of 6:33 PM on Sunday 25 Jan 2015 (Local Time) from KFOZ Reporting Station
Overcast Overcast  
Wind Chill: 17°   Ceiling: 5000
Heat Index: 23°   Visibility: 10mi
Dew Point: 16°   Wind: 5mph
Humidity: 74%   Direction: 190°S
Pressure: 29.95"   Gusts: NA
Location:  47.4603°N, 94.029°W
Report Text: KFOZ 260033Z AUTO 19004KT 10SM OVC050 M05/M09 A2995 RMK AO2
Loading
Personal Weather Stations






























Interactive Weather Map New forecast layout! Learn more

10-Day Weather Forecast

Advertisements
Track Severe Weather on mobile